sensor_id;sensor_type;location;lat;lon;timestamp;P1;durP1;ratioP1;P2;durP2;ratioP2
47167;SDS011;32931;47.778;17.806;2024-02-15T00:00:15;22.77;;;10.55;;
47167;SDS011;32931;47.778;17.806;2024-02-15T00:02:45;17.02;;;9.30;;
47167;SDS011;32931;47.778;17.806;2024-02-15T00:05:12;14.23;;;8.43;;
47167;SDS011;32931;47.778;17.806;2024-02-15T00:07:40;13.80;;;8.40;;
47167;SDS011;32931;47.778;17.806;2024-02-15T00:10:06;18.20;;;8.85;;
47167;SDS011;32931;47.778;17.806;2024-02-15T00:12:34;15.90;;;8.65;;
47167;SDS011;32931;47.778;17.806;2024-02-15T00:15:01;14.48;;;8.55;;
47167;SDS011;32931;47.778;17.806;2024-02-15T00:17:27;15.98;;;8.52;;
47167;SDS011;32931;47.778;17.806;2024-02-15T00:19:56;15.45;;;7.97;;
47167;SDS011;32931;47.778;17.806;2024-02-15T00:22:22;15.63;;;7.75;;
47167;SDS011;32931;47.778;17.806;2024-02-15T00:24:48;16.60;;;7.72;;
47167;SDS011;32931;47.778;17.806;2024-02-15T00:27:15;13.27;;;7.57;;
47167;SDS011;32931;47.778;17.806;2024-02-15T00:29:41;13.10;;;7.15;;
47167;SDS011;32931;47.778;17.806;2024-02-15T00:32:08;13.63;;;7.57;;
47167;SDS011;32931;47.778;17.806;2024-02-15T00:34:36;13.40;;;7.80;;
47167;SDS011;32931;47.778;17.806;2024-02-15T00:37:04;17.13;;;7.55;;
47167;SDS011;32931;47.778;17.806;2024-02-15T00:39:31;15.48;;;8.00;;
47167;SDS011;32931;47.778;17.806;2024-02-15T00:41:57;13.90;;;7.85;;
47167;SDS011;32931;47.778;17.806;2024-02-15T00:44:26;13.88;;;7.93;;
47167;SDS011;32931;47.778;17.806;2024-02-15T00:46:52;14.95;;;7.28;;
47167;SDS011;32931;47.778;17.806;2024-02-15T00:49:18;16.92;;;7.63;;
47167;SDS011;32931;47.778;17.806;2024-02-15T00:51:48;12.95;;;7.68;;
47167;SDS011;32931;47.778;17.806;2024-02-15T00:54:15;17.70;;;8.30;;
47167;SDS011;32931;47.778;17.806;2024-02-15T00:56:41;15.20;;;7.93;;
47167;SDS011;32931;47.778;17.806;2024-02-15T00:59:07;19.20;;;8.88;;
47167;SDS011;32931;47.778;17.806;2024-02-15T01:01:33;16.50;;;10.05;;
47167;SDS011;32931;47.778;17.806;2024-02-15T01:04:03;16.48;;;8.93;;
47167;SDS011;32931;47.778;17.806;2024-02-15T01:06:30;18.23;;;8.85;;
47167;SDS011;32931;47.778;17.806;2024-02-15T01:08:57;16.17;;;8.23;;
47167;SDS011;32931;47.778;17.806;2024-02-15T01:11:23;19.20;;;8.55;;
47167;SDS011;32931;47.778;17.806;2024-02-15T01:13:49;17.13;;;9.02;;
47167;SDS011;32931;47.778;17.806;2024-02-15T01:16:16;13.18;;;8.30;;
47167;SDS011;32931;47.778;17.806;2024-02-15T01:18:42;16.63;;;8.93;;
47167;SDS011;32931;47.778;17.806;2024-02-15T01:21:08;15.85;;;8.77;;
47167;SDS011;32931;47.778;17.806;2024-02-15T01:23:36;16.70;;;8.88;;
47167;SDS011;32931;47.778;17.806;2024-02-15T01:26:02;15.55;;;8.70;;
47167;SDS011;32931;47.778;17.806;2024-02-15T01:28:30;15.80;;;8.43;;
47167;SDS011;32931;47.778;17.806;2024-02-15T01:30:56;14.32;;;8.38;;
47167;SDS011;32931;47.778;17.806;2024-02-15T01:33:22;17.48;;;9.30;;
47167;SDS011;32931;47.778;17.806;2024-02-15T01:35:48;15.50;;;9.07;;
47167;SDS011;32931;47.778;17.806;2024-02-15T01:38:14;21.20;;;10.27;;
47167;SDS011;32931;47.778;17.806;2024-02-15T01:40:40;21.00;;;11.80;;
47167;SDS011;32931;47.778;17.806;2024-02-15T01:43:08;20.83;;;11.32;;
47167;SDS011;32931;47.778;17.806;2024-02-15T01:45:34;23.05;;;12.13;;
47167;SDS011;32931;47.778;17.806;2024-02-15T01:48:01;22.25;;;13.48;;
47167;SDS011;32931;47.778;17.806;2024-02-15T01:50:29;18.90;;;10.88;;
47167;SDS011;32931;47.778;17.806;2024-02-15T01:52:58;21.35;;;12.60;;
47167;SDS011;32931;47.778;17.806;2024-02-15T01:55:24;20.42;;;11.15;;
47167;SDS011;32931;47.778;17.806;2024-02-15T01:57:51;19.42;;;10.65;;
47167;SDS011;32931;47.778;17.806;2024-02-15T02:00:17;18.25;;;10.70;;
47167;SDS011;32931;47.778;17.806;2024-02-15T02:02:45;16.05;;;10.45;;
47167;SDS011;32931;47.778;17.806;2024-02-15T02:05:12;17.45;;;10.18;;
47167;SDS011;32931;47.778;17.806;2024-02-15T02:07:38;20.95;;;11.35;;
47167;SDS011;32931;47.778;17.806;2024-02-15T02:10:05;16.40;;;9.80;;
47167;SDS011;32931;47.778;17.806;2024-02-15T02:12:32;19.60;;;9.77;;
47167;SDS011;32931;47.778;17.806;2024-02-15T02:14:58;14.52;;;9.43;;
47167;SDS011;32931;47.778;17.806;2024-02-15T02:17:24;18.67;;;9.52;;
47167;SDS011;32931;47.778;17.806;2024-02-15T02:19:50;17.95;;;10.43;;
47167;SDS011;32931;47.778;17.806;2024-02-15T02:22:17;20.02;;;9.10;;
47167;SDS011;32931;47.778;17.806;2024-02-15T02:27:26;19.30;;;10.40;;
47167;SDS011;32931;47.778;17.806;2024-02-15T02:29:53;21.25;;;11.02;;
47167;SDS011;32931;47.778;17.806;2024-02-15T02:32:20;19.33;;;10.30;;
47167;SDS011;32931;47.778;17.806;2024-02-15T02:34:46;18.52;;;9.95;;
47167;SDS011;32931;47.778;17.806;2024-02-15T02:37:13;16.42;;;9.15;;
47167;SDS011;32931;47.778;17.806;2024-02-15T02:39:39;17.92;;;9.63;;
47167;SDS011;32931;47.778;17.806;2024-02-15T02:42:06;16.02;;;9.57;;
47167;SDS011;32931;47.778;17.806;2024-02-15T02:44:33;17.05;;;8.93;;
47167;SDS011;32931;47.778;17.806;2024-02-15T02:46:59;15.15;;;9.48;;
47167;SDS011;32931;47.778;17.806;2024-02-15T02:49:26;19.85;;;10.30;;
47167;SDS011;32931;47.778;17.806;2024-02-15T02:51:52;19.05;;;10.27;;
47167;SDS011;32931;47.778;17.806;2024-02-15T02:54:19;18.70;;;11.27;;
47167;SDS011;32931;47.778;17.806;2024-02-15T02:56:45;21.48;;;11.10;;
47167;SDS011;32931;47.778;17.806;2024-02-15T02:59:11;18.90;;;10.50;;
47167;SDS011;32931;47.778;17.806;2024-02-15T03:01:38;18.17;;;11.25;;
47167;SDS011;32931;47.778;17.806;2024-02-15T03:04:05;18.20;;;10.35;;
47167;SDS011;32931;47.778;17.806;2024-02-15T03:06:31;17.92;;;10.20;;
47167;SDS011;32931;47.778;17.806;2024-02-15T03:08:57;17.90;;;10.00;;
47167;SDS011;32931;47.778;17.806;2024-02-15T03:11:24;16.88;;;9.88;;
47167;SDS011;32931;47.778;17.806;2024-02-15T03:13:50;21.25;;;11.25;;
47167;SDS011;32931;47.778;17.806;2024-02-15T03:16:16;18.88;;;10.77;;
47167;SDS011;32931;47.778;17.806;2024-02-15T03:18:42;19.33;;;10.77;;
47167;SDS011;32931;47.778;17.806;2024-02-15T03:21:08;17.13;;;10.48;;
47167;SDS011;32931;47.778;17.806;2024-02-15T03:23:39;19.52;;;10.07;;
47167;SDS011;32931;47.778;17.806;2024-02-15T03:26:07;20.58;;;11.40;;
47167;SDS011;32931;47.778;17.806;2024-02-15T03:28:34;15.95;;;10.30;;
47167;SDS011;32931;47.778;17.806;2024-02-15T03:31:02;17.60;;;10.13;;
47167;SDS011;32931;47.778;17.806;2024-02-15T03:33:28;17.80;;;10.35;;
47167;SDS011;32931;47.778;17.806;2024-02-15T03:35:59;18.30;;;11.55;;
47167;SDS011;32931;47.778;17.806;2024-02-15T03:38:26;16.30;;;11.10;;
47167;SDS011;32931;47.778;17.806;2024-02-15T03:40:55;16.65;;;10.02;;
47167;SDS011;32931;47.778;17.806;2024-02-15T03:43:21;20.23;;;11.95;;
47167;SDS011;32931;47.778;17.806;2024-02-15T03:45:49;18.48;;;10.90;;
47167;SDS011;32931;47.778;17.806;2024-02-15T03:48:16;21.70;;;11.55;;
47167;SDS011;32931;47.778;17.806;2024-02-15T03:50:42;19.38;;;10.95;;
47167;SDS011;32931;47.778;17.806;2024-02-15T03:53:09;19.80;;;10.98;;
47167;SDS011;32931;47.778;17.806;2024-02-15T03:55:39;16.02;;;10.95;;
47167;SDS011;32931;47.778;17.806;2024-02-15T03:58:05;19.20;;;10.40;;
47167;SDS011;32931;47.778;17.806;2024-02-15T04:00:33;24.85;;;11.70;;
47167;SDS011;32931;47.778;17.806;2024-02-15T04:02:59;23.50;;;11.60;;
47167;SDS011;32931;47.778;17.806;2024-02-15T04:05:26;20.13;;;10.27;;
47167;SDS011;32931;47.778;17.806;2024-02-15T04:07:52;19.77;;;10.80;;
47167;SDS011;32931;47.778;17.806;2024-02-15T04:10:19;24.80;;;12.20;;
47167;SDS011;32931;47.778;17.806;2024-02-15T04:12:45;29.83;;;12.70;;
47167;SDS011;32931;47.778;17.806;2024-02-15T04:15:11;22.77;;;12.75;;
47167;SDS011;32931;47.778;17.806;2024-02-15T04:17:38;23.83;;;13.05;;
47167;SDS011;32931;47.778;17.806;2024-02-15T04:20:04;23.70;;;13.00;;
47167;SDS011;32931;47.778;17.806;2024-02-15T04:22:32;25.08;;;13.68;;
47167;SDS011;32931;47.778;17.806;2024-02-15T04:25:05;31.20;;;15.20;;
47167;SDS011;32931;47.778;17.806;2024-02-15T04:27:32;20.75;;;13.93;;
47167;SDS011;32931;47.778;17.806;2024-02-15T04:29:59;26.55;;;13.73;;
47167;SDS011;32931;47.778;17.806;2024-02-15T04:32:25;24.00;;;13.85;;
47167;SDS011;32931;47.778;17.806;2024-02-15T04:34:51;25.08;;;13.63;;
47167;SDS011;32931;47.778;17.806;2024-02-15T04:37:17;20.40;;;13.45;;
47167;SDS011;32931;47.778;17.806;2024-02-15T04:39:46;21.67;;;14.15;;
47167;SDS011;32931;47.778;17.806;2024-02-15T04:42:13;21.75;;;13.65;;
47167;SDS011;32931;47.778;17.806;2024-02-15T04:44:40;25.35;;;14.30;;
47167;SDS011;32931;47.778;17.806;2024-02-15T04:47:06;40.15;;;15.93;;
47167;SDS011;32931;47.778;17.806;2024-02-15T04:49:32;29.45;;;18.42;;
47167;SDS011;32931;47.778;17.806;2024-02-15T04:51:58;29.70;;;18.90;;
47167;SDS011;32931;47.778;17.806;2024-02-15T04:54:27;27.08;;;18.13;;
47167;SDS011;32931;47.778;17.806;2024-02-15T04:56:54;27.05;;;17.77;;
47167;SDS011;32931;47.778;17.806;2024-02-15T04:59:22;26.92;;;18.30;;
47167;SDS011;32931;47.778;17.806;2024-02-15T05:01:54;28.25;;;18.02;;
47167;SDS011;32931;47.778;17.806;2024-02-15T05:04:22;35.08;;;18.55;;
47167;SDS011;32931;47.778;17.806;2024-02-15T05:06:50;29.05;;;18.25;;
47167;SDS011;32931;47.778;17.806;2024-02-15T05:09:16;33.22;;;17.73;;
47167;SDS011;32931;47.778;17.806;2024-02-15T05:11:43;30.85;;;16.40;;
47167;SDS011;32931;47.778;17.806;2024-02-15T05:14:14;27.30;;;17.67;;
47167;SDS011;32931;47.778;17.806;2024-02-15T05:16:47;26.52;;;17.40;;
47167;SDS011;32931;47.778;17.806;2024-02-15T05:19:14;30.15;;;17.15;;
47167;SDS011;32931;47.778;17.806;2024-02-15T05:21:42;30.17;;;16.48;;
47167;SDS011;32931;47.778;17.806;2024-02-15T05:24:14;26.95;;;17.20;;
47167;SDS011;32931;47.778;17.806;2024-02-15T05:26:43;26.63;;;16.05;;
47167;SDS011;32931;47.778;17.806;2024-02-15T05:29:14;29.42;;;16.05;;
47167;SDS011;32931;47.778;17.806;2024-02-15T05:31:40;30.60;;;17.08;;
47167;SDS011;32931;47.778;17.806;2024-02-15T05:34:06;30.15;;;15.95;;
47167;SDS011;32931;47.778;17.806;2024-02-15T05:36:34;34.47;;;17.58;;
47167;SDS011;32931;47.778;17.806;2024-02-15T05:39:00;37.63;;;16.65;;
47167;SDS011;32931;47.778;17.806;2024-02-15T05:41:28;37.08;;;18.00;;
47167;SDS011;32931;47.778;17.806;2024-02-15T05:43:55;36.90;;;16.85;;
47167;SDS011;32931;47.778;17.806;2024-02-15T05:46:23;31.65;;;15.73;;
47167;SDS011;32931;47.778;17.806;2024-02-15T05:48:49;34.28;;;16.55;;
47167;SDS011;32931;47.778;17.806;2024-02-15T05:51:17;34.72;;;16.58;;
47167;SDS011;32931;47.778;17.806;2024-02-15T05:53:43;29.42;;;16.77;;
47167;SDS011;32931;47.778;17.806;2024-02-15T05:56:10;28.73;;;17.02;;
47167;SDS011;32931;47.778;17.806;2024-02-15T05:58:37;45.03;;;17.33;;
47167;SDS011;32931;47.778;17.806;2024-02-15T06:01:04;37.55;;;16.85;;
47167;SDS011;32931;47.778;17.806;2024-02-15T06:03:33;44.10;;;17.77;;
47167;SDS011;32931;47.778;17.806;2024-02-15T06:06:04;40.22;;;17.00;;
47167;SDS011;32931;47.778;17.806;2024-02-15T06:08:33;35.10;;;16.50;;
47167;SDS011;32931;47.778;17.806;2024-02-15T06:11:00;26.52;;;16.50;;
47167;SDS011;32931;47.778;17.806;2024-02-15T06:13:27;27.00;;;14.90;;
47167;SDS011;32931;47.778;17.806;2024-02-15T06:15:53;33.03;;;15.52;;
47167;SDS011;32931;47.778;17.806;2024-02-15T06:18:20;32.65;;;15.63;;
47167;SDS011;32931;47.778;17.806;2024-02-15T06:20:49;29.20;;;15.52;;
47167;SDS011;32931;47.778;17.806;2024-02-15T06:23:16;25.83;;;15.07;;
47167;SDS011;32931;47.778;17.806;2024-02-15T06:25:44;23.02;;;14.43;;
47167;SDS011;32931;47.778;17.806;2024-02-15T06:28:13;27.15;;;14.13;;
47167;SDS011;32931;47.778;17.806;2024-02-15T06:30:59;26.23;;;13.98;;
47167;SDS011;32931;47.778;17.806;2024-02-15T06:33:43;58.95;;;14.68;;
47167;SDS011;32931;47.778;17.806;2024-02-15T06:36:28;33.42;;;14.60;;
47167;SDS011;32931;47.778;17.806;2024-02-15T06:39:12;35.00;;;13.43;;
47167;SDS011;32931;47.778;17.806;2024-02-15T06:41:59;22.88;;;14.07;;
47167;SDS011;32931;47.778;17.806;2024-02-15T06:44:29;29.48;;;14.88;;
47167;SDS011;32931;47.778;17.806;2024-02-15T06:46:55;25.20;;;13.68;;
47167;SDS011;32931;47.778;17.806;2024-02-15T06:49:23;37.58;;;14.25;;
47167;SDS011;32931;47.778;17.806;2024-02-15T06:51:52;26.38;;;15.50;;
47167;SDS011;32931;47.778;17.806;2024-02-15T06:54:18;26.35;;;14.18;;
47167;SDS011;32931;47.778;17.806;2024-02-15T06:56:45;28.42;;;14.65;;
47167;SDS011;32931;47.778;17.806;2024-02-15T06:59:14;31.05;;;14.90;;
47167;SDS011;32931;47.778;17.806;2024-02-15T07:01:42;32.88;;;15.50;;
47167;SDS011;32931;47.778;17.806;2024-02-15T07:04:08;30.20;;;13.85;;
47167;SDS011;32931;47.778;17.806;2024-02-15T07:06:38;28.35;;;13.63;;
47167;SDS011;32931;47.778;17.806;2024-02-15T07:09:07;21.92;;;13.35;;
47167;SDS011;32931;47.778;17.806;2024-02-15T07:11:33;25.52;;;13.80;;
47167;SDS011;32931;47.778;17.806;2024-02-15T07:14:02;21.90;;;13.70;;
47167;SDS011;32931;47.778;17.806;2024-02-15T07:16:33;20.58;;;13.55;;
47167;SDS011;32931;47.778;17.806;2024-02-15T07:18:59;25.50;;;13.32;;
47167;SDS011;32931;47.778;17.806;2024-02-15T07:21:25;27.08;;;13.52;;
47167;SDS011;32931;47.778;17.806;2024-02-15T07:23:55;35.08;;;12.52;;
47167;SDS011;32931;47.778;17.806;2024-02-15T07:26:23;28.83;;;13.25;;
47167;SDS011;32931;47.778;17.806;2024-02-15T07:28:53;25.42;;;13.07;;
47167;SDS011;32931;47.778;17.806;2024-02-15T07:31:20;20.73;;;13.32;;
47167;SDS011;32931;47.778;17.806;2024-02-15T07:33:50;27.20;;;13.02;;
47167;SDS011;32931;47.778;17.806;2024-02-15T07:36:20;28.10;;;13.15;;
47167;SDS011;32931;47.778;17.806;2024-02-15T07:38:50;27.85;;;13.68;;
47167;SDS011;32931;47.778;17.806;2024-02-15T07:41:17;24.70;;;12.73;;
47167;SDS011;32931;47.778;17.806;2024-02-15T07:43:45;31.98;;;13.43;;
47167;SDS011;32931;47.778;17.806;2024-02-15T07:46:13;28.30;;;12.93;;
47167;SDS011;32931;47.778;17.806;2024-02-15T07:48:39;23.70;;;12.20;;
47167;SDS011;32931;47.778;17.806;2024-02-15T07:51:11;28.50;;;12.68;;
47167;SDS011;32931;47.778;17.806;2024-02-15T07:53:39;25.90;;;12.80;;
47167;SDS011;32931;47.778;17.806;2024-02-15T07:56:05;22.02;;;11.82;;
47167;SDS011;32931;47.778;17.806;2024-02-15T07:58:32;22.05;;;11.98;;
47167;SDS011;32931;47.778;17.806;2024-02-15T08:00:58;21.58;;;11.40;;
47167;SDS011;32931;47.778;17.806;2024-02-15T08:03:25;21.23;;;11.82;;
47167;SDS011;32931;47.778;17.806;2024-02-15T08:05:55;21.63;;;11.75;;
47167;SDS011;32931;47.778;17.806;2024-02-15T08:08:21;23.45;;;12.80;;
47167;SDS011;32931;47.778;17.806;2024-02-15T08:10:47;18.80;;;11.27;;
47167;SDS011;32931;47.778;17.806;2024-02-15T08:13:17;27.00;;;11.57;;
47167;SDS011;32931;47.778;17.806;2024-02-15T08:15:43;20.50;;;11.80;;
47167;SDS011;32931;47.778;17.806;2024-02-15T08:18:11;18.75;;;12.00;;
47167;SDS011;32931;47.778;17.806;2024-02-15T08:20:38;25.30;;;11.75;;
47167;SDS011;32931;47.778;17.806;2024-02-15T08:23:06;20.67;;;11.70;;
47167;SDS011;32931;47.778;17.806;2024-02-15T08:25:32;22.73;;;12.38;;
47167;SDS011;32931;47.778;17.806;2024-02-15T08:27:58;25.63;;;11.82;;
47167;SDS011;32931;47.778;17.806;2024-02-15T08:30:26;20.42;;;11.82;;
47167;SDS011;32931;47.778;17.806;2024-02-15T08:32:53;25.40;;;11.70;;
47167;SDS011;32931;47.778;17.806;2024-02-15T08:35:19;19.92;;;11.35;;
47167;SDS011;32931;47.778;17.806;2024-02-15T08:37:46;20.20;;;12.50;;
47167;SDS011;32931;47.778;17.806;2024-02-15T08:40:13;22.85;;;12.07;;
47167;SDS011;32931;47.778;17.806;2024-02-15T08:42:41;18.38;;;11.77;;
47167;SDS011;32931;47.778;17.806;2024-02-15T08:45:08;19.63;;;12.13;;
47167;SDS011;32931;47.778;17.806;2024-02-15T08:47:39;18.80;;;11.20;;
47167;SDS011;32931;47.778;17.806;2024-02-15T08:50:06;20.27;;;11.77;;
47167;SDS011;32931;47.778;17.806;2024-02-15T08:52:36;23.77;;;11.88;;
47167;SDS011;32931;47.778;17.806;2024-02-15T08:55:05;20.02;;;10.65;;
47167;SDS011;32931;47.778;17.806;2024-02-15T08:57:32;27.70;;;11.32;;
47167;SDS011;32931;47.778;17.806;2024-02-15T08:59:59;19.65;;;12.00;;
47167;SDS011;32931;47.778;17.806;2024-02-15T09:02:25;20.60;;;11.43;;
47167;SDS011;32931;47.778;17.806;2024-02-15T09:04:51;21.10;;;11.75;;
47167;SDS011;32931;47.778;17.806;2024-02-15T09:07:17;19.23;;;11.45;;
47167;SDS011;32931;47.778;17.806;2024-02-15T09:09:43;18.83;;;11.23;;
47167;SDS011;32931;47.778;17.806;2024-02-15T09:12:10;21.80;;;12.15;;
47167;SDS011;32931;47.778;17.806;2024-02-15T09:14:36;25.60;;;14.27;;
47167;SDS011;32931;47.778;17.806;2024-02-15T09:17:02;30.13;;;13.38;;
47167;SDS011;32931;47.778;17.806;2024-02-15T09:19:36;23.65;;;13.43;;
47167;SDS011;32931;47.778;17.806;2024-02-15T09:22:02;23.95;;;13.63;;
47167;SDS011;32931;47.778;17.806;2024-02-15T09:24:32;23.88;;;12.27;;
47167;SDS011;32931;47.778;17.806;2024-02-15T09:27:01;28.73;;;12.85;;
47167;SDS011;32931;47.778;17.806;2024-02-15T09:29:28;26.75;;;13.73;;
47167;SDS011;32931;47.778;17.806;2024-02-15T09:31:58;26.17;;;13.02;;
47167;SDS011;32931;47.778;17.806;2024-02-15T09:34:27;47.20;;;14.20;;
47167;SDS011;32931;47.778;17.806;2024-02-15T09:36:53;26.20;;;12.65;;
47167;SDS011;32931;47.778;17.806;2024-02-15T09:39:21;25.63;;;12.45;;
47167;SDS011;32931;47.778;17.806;2024-02-15T09:41:48;21.75;;;12.48;;
47167;SDS011;32931;47.778;17.806;2024-02-15T09:44:21;23.00;;;12.40;;
47167;SDS011;32931;47.778;17.806;2024-02-15T09:46:47;23.48;;;12.32;;
47167;SDS011;32931;47.778;17.806;2024-02-15T09:49:19;33.65;;;13.07;;
47167;SDS011;32931;47.778;17.806;2024-02-15T09:51:46;24.85;;;13.68;;
47167;SDS011;32931;47.778;17.806;2024-02-15T09:54:14;20.33;;;12.63;;
47167;SDS011;32931;47.778;17.806;2024-02-15T09:56:48;21.50;;;12.07;;
47167;SDS011;32931;47.778;17.806;2024-02-15T09:59:16;25.33;;;11.48;;
47167;SDS011;32931;47.778;17.806;2024-02-15T10:01:43;23.23;;;11.40;;
47167;SDS011;32931;47.778;17.806;2024-02-15T10:04:12;22.25;;;11.73;;
47167;SDS011;32931;47.778;17.806;2024-02-15T10:06:42;21.70;;;11.32;;
47167;SDS011;32931;47.778;17.806;2024-02-15T10:12:01;17.98;;;10.63;;
47167;SDS011;32931;47.778;17.806;2024-02-15T10:14:28;21.52;;;9.95;;
47167;SDS011;32931;47.778;17.806;2024-02-15T10:16:55;26.08;;;10.98;;
47167;SDS011;32931;47.778;17.806;2024-02-15T10:19:22;22.60;;;11.38;;
47167;SDS011;32931;47.778;17.806;2024-02-15T10:21:51;20.58;;;11.75;;
47167;SDS011;32931;47.778;17.806;2024-02-15T10:24:21;24.20;;;10.73;;
47167;SDS011;32931;47.778;17.806;2024-02-15T10:26:49;27.83;;;11.73;;
47167;SDS011;32931;47.778;17.806;2024-02-15T10:29:16;25.42;;;11.27;;
47167;SDS011;32931;47.778;17.806;2024-02-15T10:31:53;22.15;;;12.40;;
47167;SDS011;32931;47.778;17.806;2024-02-15T10:34:20;25.52;;;11.10;;
47167;SDS011;32931;47.778;17.806;2024-02-15T10:36:47;21.40;;;11.90;;
47167;SDS011;32931;47.778;17.806;2024-02-15T10:39:14;22.05;;;11.90;;
47167;SDS011;32931;47.778;17.806;2024-02-15T10:41:47;22.75;;;11.52;;
47167;SDS011;32931;47.778;17.806;2024-02-15T10:44:15;20.05;;;10.50;;
47167;SDS011;32931;47.778;17.806;2024-02-15T10:46:47;17.27;;;11.07;;
47167;SDS011;32931;47.778;17.806;2024-02-15T10:49:21;21.45;;;12.43;;
47167;SDS011;32931;47.778;17.806;2024-02-15T10:51:55;27.48;;;14.80;;
47167;SDS011;32931;47.778;17.806;2024-02-15T10:54:30;22.42;;;11.85;;
47167;SDS011;32931;47.778;17.806;2024-02-15T10:57:05;20.48;;;11.95;;
47167;SDS011;32931;47.778;17.806;2024-02-15T10:59:33;28.10;;;18.00;;
47167;SDS011;32931;47.778;17.806;2024-02-15T11:02:12;20.88;;;11.45;;
47167;SDS011;32931;47.778;17.806;2024-02-15T11:04:52;20.20;;;11.85;;
47167;SDS011;32931;47.778;17.806;2024-02-15T11:07:24;20.83;;;12.70;;
47167;SDS011;32931;47.778;17.806;2024-02-15T11:09:54;36.63;;;22.80;;
47167;SDS011;32931;47.778;17.806;2024-02-15T11:12:24;28.52;;;15.20;;
47167;SDS011;32931;47.778;17.806;2024-02-15T11:14:53;39.92;;;23.80;;
47167;SDS011;32931;47.778;17.806;2024-02-15T11:17:53;30.08;;;14.52;;
47167;SDS011;32931;47.778;17.806;2024-02-15T11:23:00;26.38;;;13.00;;
47167;SDS011;32931;47.778;17.806;2024-02-15T11:25:38;24.13;;;13.05;;
47167;SDS011;32931;47.778;17.806;2024-02-15T11:30:48;31.70;;;15.55;;
47167;SDS011;32931;47.778;17.806;2024-02-15T11:33:32;30.95;;;14.02;;
47167;SDS011;32931;47.778;17.806;2024-02-15T11:36:03;32.33;;;16.63;;
47167;SDS011;32931;47.778;17.806;2024-02-15T11:38:34;20.95;;;12.13;;
47167;SDS011;32931;47.778;17.806;2024-02-15T11:41:01;31.00;;;11.82;;
47167;SDS011;32931;47.778;17.806;2024-02-15T11:46:14;28.67;;;14.13;;
47167;SDS011;32931;47.778;17.806;2024-02-15T11:48:45;31.25;;;19.38;;
47167;SDS011;32931;47.778;17.806;2024-02-15T11:51:34;31.70;;;17.40;;
47167;SDS011;32931;47.778;17.806;2024-02-15T11:54:08;19.42;;;11.73;;
47167;SDS011;32931;47.778;17.806;2024-02-15T11:59:13;22.77;;;12.40;;
47167;SDS011;32931;47.778;17.806;2024-02-15T12:01:57;18.70;;;10.93;;
47167;SDS011;32931;47.778;17.806;2024-02-15T12:04:43;20.30;;;10.32;;
47167;SDS011;32931;47.778;17.806;2024-02-15T12:07:32;20.17;;;10.50;;
47167;SDS011;32931;47.778;17.806;2024-02-15T12:10:17;17.67;;;10.27;;
47167;SDS011;32931;47.778;17.806;2024-02-15T12:13:02;18.40;;;10.55;;
47167;SDS011;32931;47.778;17.806;2024-02-15T12:15:57;18.83;;;10.50;;
47167;SDS011;32931;47.778;17.806;2024-02-15T12:18:42;20.33;;;11.75;;
47167;SDS011;32931;47.778;17.806;2024-02-15T12:21:11;25.63;;;13.73;;
47167;SDS011;32931;47.778;17.806;2024-02-15T12:23:44;27.45;;;12.02;;
47167;SDS011;32931;47.778;17.806;2024-02-15T12:26:11;22.00;;;10.95;;
47167;SDS011;32931;47.778;17.806;2024-02-15T12:28:40;17.65;;;11.48;;
47167;SDS011;32931;47.778;17.806;2024-02-15T12:31:08;20.42;;;11.63;;
47167;SDS011;32931;47.778;17.806;2024-02-15T12:33:35;17.58;;;11.60;;
47167;SDS011;32931;47.778;17.806;2024-02-15T12:36:06;17.30;;;11.30;;
47167;SDS011;32931;47.778;17.806;2024-02-15T12:38:33;25.85;;;13.18;;
47167;SDS011;32931;47.778;17.806;2024-02-15T12:41:03;18.77;;;11.50;;
47167;SDS011;32931;47.778;17.806;2024-02-15T12:43:42;22.85;;;12.18;;
47167;SDS011;32931;47.778;17.806;2024-02-15T12:46:08;22.63;;;11.50;;
47167;SDS011;32931;47.778;17.806;2024-02-15T12:48:34;18.08;;;10.85;;
47167;SDS011;32931;47.778;17.806;2024-02-15T12:51:12;18.25;;;10.93;;
47167;SDS011;32931;47.778;17.806;2024-02-15T12:53:42;25.92;;;11.30;;
47167;SDS011;32931;47.778;17.806;2024-02-15T12:56:08;27.95;;;11.52;;
47167;SDS011;32931;47.778;17.806;2024-02-15T12:58:39;23.33;;;10.48;;
47167;SDS011;32931;47.778;17.806;2024-02-15T13:01:06;19.05;;;11.43;;
47167;SDS011;32931;47.778;17.806;2024-02-15T13:03:34;22.23;;;12.00;;
47167;SDS011;32931;47.778;17.806;2024-02-15T13:06:00;24.23;;;11.60;;
47167;SDS011;32931;47.778;17.806;2024-02-15T13:08:27;19.70;;;11.27;;
47167;SDS011;32931;47.778;17.806;2024-02-15T13:10:53;25.83;;;11.73;;
47167;SDS011;32931;47.778;17.806;2024-02-15T13:13:19;23.85;;;12.27;;
47167;SDS011;32931;47.778;17.806;2024-02-15T13:15:46;18.27;;;11.48;;
47167;SDS011;32931;47.778;17.806;2024-02-15T13:18:12;18.48;;;11.70;;
47167;SDS011;32931;47.778;17.806;2024-02-15T13:20:39;27.38;;;12.27;;
47167;SDS011;32931;47.778;17.806;2024-02-15T13:23:09;22.30;;;11.90;;
47167;SDS011;32931;47.778;17.806;2024-02-15T13:25:43;64.10;;;30.02;;
47167;SDS011;32931;47.778;17.806;2024-02-15T13:28:09;23.58;;;14.77;;
47167;SDS011;32931;47.778;17.806;2024-02-15T13:30:38;24.38;;;14.45;;
47167;SDS011;32931;47.778;17.806;2024-02-15T13:33:05;20.00;;;12.48;;
47167;SDS011;32931;47.778;17.806;2024-02-15T13:35:31;21.00;;;12.40;;
47167;SDS011;32931;47.778;17.806;2024-02-15T13:37:58;21.90;;;11.55;;
47167;SDS011;32931;47.778;17.806;2024-02-15T13:40:24;21.10;;;11.60;;
47167;SDS011;32931;47.778;17.806;2024-02-15T13:42:54;24.02;;;12.40;;
47167;SDS011;32931;47.778;17.806;2024-02-15T13:45:28;27.17;;;13.20;;
47167;SDS011;32931;47.778;17.806;2024-02-15T13:47:56;22.67;;;12.37;;
47167;SDS011;32931;47.778;17.806;2024-02-15T13:50:22;25.17;;;12.15;;
47167;SDS011;32931;47.778;17.806;2024-02-15T13:52:49;24.30;;;11.70;;
47167;SDS011;32931;47.778;17.806;2024-02-15T13:55:18;17.52;;;11.30;;
47167;SDS011;32931;47.778;17.806;2024-02-15T13:57:48;23.20;;;11.00;;
47167;SDS011;32931;47.778;17.806;2024-02-15T14:00:14;18.50;;;11.18;;
47167;SDS011;32931;47.778;17.806;2024-02-15T14:05:21;22.23;;;11.45;;
47167;SDS011;32931;47.778;17.806;2024-02-15T14:07:50;22.95;;;11.75;;
47167;SDS011;32931;47.778;17.806;2024-02-15T14:10:19;17.83;;;10.95;;
47167;SDS011;32931;47.778;17.806;2024-02-15T14:12:49;20.63;;;10.80;;
47167;SDS011;32931;47.778;17.806;2024-02-15T14:15:29;19.07;;;10.37;;
47167;SDS011;32931;47.778;17.806;2024-02-15T14:17:55;16.10;;;10.63;;
47167;SDS011;32931;47.778;17.806;2024-02-15T14:20:22;19.52;;;10.38;;
47167;SDS011;32931;47.778;17.806;2024-02-15T14:22:49;23.10;;;10.70;;
47167;SDS011;32931;47.778;17.806;2024-02-15T14:25:21;16.75;;;10.27;;
47167;SDS011;32931;47.778;17.806;2024-02-15T14:27:48;20.42;;;10.38;;
47167;SDS011;32931;47.778;17.806;2024-02-15T14:30:15;19.13;;;10.18;;
47167;SDS011;32931;47.778;17.806;2024-02-15T14:32:59;26.33;;;9.57;;
47167;SDS011;32931;47.778;17.806;2024-02-15T14:35:26;16.17;;;9.63;;
47167;SDS011;32931;47.778;17.806;2024-02-15T14:37:56;18.33;;;9.65;;